Time;durP1;ratioP1;P1;durP2;ratioP2;P2;SDS_P1;SDS_P2;PMS_P1;PMS_P2;Temp;Humidity;BMP_temperature;BMP_pressure;BME280_temperature;BME280_humidity;BME280_pressure;Samples;Min_cycle;Max_cycle;Signal;HPM_P1;HPM_P2
2022/07/09 00:01:53;;;;;;;7.05;3.70;;;15.80;1.00;;;;;;7373476;19;20073;-61
2022/07/09 00:04:26;;;;;;;8.07;3.33;;;15.90;1.00;;;;;;7373329;19;20025;-61
2022/07/09 00:06:55;;;;;;;6.25;3.42;;;16.00;1.00;;;;;;7372518;19;20070;-62
2022/07/09 00:09:25;;;;;;;6.90;3.55;;;16.00;1.00;;;;;;7372461;19;20007;-61
2022/07/09 00:11:56;;;;;;;6.35;3.33;;;16.00;1.00;;;;;;7373003;19;20029;-61
2022/07/09 00:14:26;;;;;;;8.38;3.72;;;16.00;1.00;;;;;;7393735;19;20095;-60
2022/07/09 00:16:56;;;;;;;7.80;4.00;;;15.90;1.00;;;;;;7370069;19;20022;-60
2022/07/09 00:19:28;;;;;;;7.03;3.75;;;15.90;1.00;;;;;;7373259;19;20103;-61
2022/07/09 00:21:58;;;;;;;6.43;3.75;;;15.90;1.00;;;;;;7372390;19;20010;-61
2022/07/09 00:24:28;;;;;;;10.23;4.50;;;15.80;1.00;;;;;;7371382;19;20018;-62
2022/07/09 00:26:58;;;;;;;7.75;4.00;;;15.60;1.00;;;;;;7371211;19;20105;-60
2022/07/09 00:29:27;;;;;;;6.32;3.80;;;15.70;1.00;;;;;;7393640;19;20402;-60
2022/07/09 00:31:57;;;;;;;8.60;4.00;;;15.60;1.00;;;;;;7372595;19;20010;-61
2022/07/09 00:34:30;;;;;;;7.03;3.85;;;15.30;1.00;;;;;;7371766;19;20056;-60
2022/07/09 00:37:00;;;;;;;6.85;3.60;;;15.30;1.00;;;;;;7369318;19;20014;-60
2022/07/09 00:39:30;;;;;;;7.45;3.40;;;15.20;1.00;;;;;;7372232;19;20097;-62
2022/07/09 00:42:09;;;;;;;9.90;4.35;;;15.10;1.00;;;;;;7371228;19;20042;-62
2022/07/09 00:44:40;;;;;;;7.47;3.67;;;15.20;1.00;;;;;;7372103;19;20018;-61
2022/07/09 00:47:11;;;;;;;5.97;4.10;;;15.10;1.00;;;;;;7391965;19;20018;-62
2022/07/09 00:49:45;;;;;;;7.78;4.13;;;14.90;1.00;;;;;;7372545;19;20080;-60
2022/07/09 00:52:17;;;;;;;6.90;3.97;;;15.00;1.00;;;;;;7370973;19;20010;-61
2022/07/09 00:54:47;;;;;;;9.55;4.15;;;15.10;1.00;;;;;;7370187;19;20017;-60
2022/07/09 00:57:19;;;;;;;10.07;5.22;;;15.30;1.00;;;;;;7370555;19;20066;-61
2022/07/09 00:59:50;;;;;;;8.15;4.55;;;15.30;1.00;;;;;;7372735;19;20024;-61
2022/07/09 01:02:21;;;;;;;10.45;5.18;;;15.30;1.00;;;;;;7394402;19;20078;-61
2022/07/09 01:04:53;;;;;;;8.70;5.20;;;15.10;1.00;;;;;;7369179;19;20034;-61
2022/07/09 01:07:23;;;;;;;7.72;4.53;;;15.00;1.00;;;;;;7369633;19;20517;-61
2022/07/09 01:09:53;;;;;;;6.47;4.32;;;14.90;1.00;;;;;;7371419;19;20025;-61
2022/07/09 01:12:23;;;;;;;6.75;3.83;;;14.90;1.00;;;;;;7372592;19;20085;-61
2022/07/09 01:14:53;;;;;;;6.28;4.05;;;14.80;1.00;;;;;;7370275;19;20075;-61
2022/07/09 01:17:23;;;;;;;6.55;3.95;;;14.80;1.00;;;;;;7391428;19;20089;-62
2022/07/09 01:19:55;;;;;;;10.35;4.70;;;14.70;1.00;;;;;;7371757;19;20018;-60
2022/07/09 01:22:28;;;;;;;9.95;4.22;;;14.60;1.00;;;;;;7369911;19;20816;-60
2022/07/09 01:24:59;;;;;;;6.88;4.18;;;14.60;1.00;;;;;;7369626;19;20027;-61
2022/07/09 01:27:29;;;;;;;8.38;4.30;;;14.60;1.00;;;;;;7369550;19;20013;-61
2022/07/09 01:30:01;;;;;;;6.68;4.25;;;14.60;1.00;;;;;;7370788;19;20030;-61
2022/07/09 01:32:31;;;;;;;8.07;4.22;;;14.50;1.00;;;;;;7393400;19;20023;-61
2022/07/09 01:35:01;;;;;;;6.35;4.18;;;14.50;1.00;;;;;;7370228;19;20010;-61
2022/07/09 01:37:34;;;;;;;7.78;4.43;;;14.50;1.00;;;;;;7369121;19;20010;-61
2022/07/09 01:40:04;;;;;;;9.23;4.22;;;14.40;1.00;;;;;;7370816;19;20029;-61
2022/07/09 01:42:34;;;;;;;7.28;4.15;;;14.30;1.00;;;;;;7368125;19;20017;-61
2022/07/09 01:45:04;;;;;;;5.03;4.05;;;14.20;1.00;;;;;;7368196;19;20014;-61
2022/07/09 01:47:34;;;;;;;7.35;4.97;;;14.20;1.00;;;;;;7380445;19;20014;-62
2022/07/09 01:50:04;;;;;;;6.47;4.18;;;14.20;1.00;;;;;;7391096;19;20429;-61
2022/07/09 01:52:37;;;;;;;5.90;4.40;;;14.20;1.00;;;;;;7370291;19;20021;-61
2022/07/09 01:55:08;;;;;;;10.90;4.70;;;14.30;1.00;;;;;;7369630;19;20357;-61
2022/07/09 01:57:38;;;;;;;6.30;4.30;;;14.30;1.00;;;;;;7367947;19;20010;-61
2022/07/09 02:00:09;;;;;;;9.10;4.22;;;14.20;1.00;;;;;;7370190;19;20135;-61
2022/07/09 02:02:39;;;;;;;7.25;4.05;;;14.10;1.00;;;;;;7370152;19;20019;-62
2022/07/09 02:05:09;;;;;;;5.63;4.07;;;14.00;1.00;;;;;;7391369;19;20018;-61
2022/07/09 02:07:41;;;;;;;6.28;4.03;;;13.90;1.00;;;;;;7367963;19;20105;-61
2022/07/09 02:10:12;;;;;;;6.72;4.32;;;13.90;1.00;;;;;;7369557;19;20070;-61
2022/07/09 02:12:42;;;;;;;8.75;4.80;;;13.90;1.00;;;;;;7370108;19;20018;-61
2022/07/09 02:15:13;;;;;;;6.55;3.90;;;13.80;1.50;;;;;;7370240;19;20007;-61
2022/07/09 02:17:43;;;;;;;8.20;4.13;;;13.70;2.80;;;;;;7368985;19;20014;-62
2022/07/09 02:20:14;;;;;;;6.63;4.40;;;13.70;3.00;;;;;;7391480;19;20010;-61
2022/07/09 02:22:46;;;;;;;12.88;5.10;;;13.70;3.80;;;;;;7369412;19;20085;-61
2022/07/09 02:25:16;;;;;;;6.78;4.70;;;13.70;3.70;;;;;;7368893;19;20006;-61
2022/07/09 02:27:46;;;;;;;8.35;4.93;;;13.80;3.50;;;;;;7369071;19;20020;-61
2022/07/09 02:30:16;;;;;;;9.60;5.35;;;13.90;2.90;;;;;;7369784;19;20030;-61
2022/07/09 02:32:46;;;;;;;8.25;4.85;;;14.10;1.50;;;;;;7369548;19;20508;-61
2022/07/09 02:35:15;;;;;;;7.82;5.05;;;14.20;1.00;;;;;;7391181;19;20014;-60
2022/07/09 02:37:48;;;;;;;7.57;5.30;;;14.20;1.00;;;;;;7368259;19;20014;-60
2022/07/09 02:40:18;;;;;;;7.55;4.93;;;14.30;1.00;;;;;;7368886;19;20006;-60
2022/07/09 02:42:47;;;;;;;13.00;5.05;;;14.30;1.00;;;;;;7368350;19;20010;-61
2022/07/09 02:45:17;;;;;;;6.90;4.72;;;14.30;1.00;;;;;;7366796;19;20078;-61
2022/07/09 02:47:47;;;;;;;7.95;4.32;;;14.30;1.00;;;;;;7367739;19;20074;-61
2022/07/09 02:50:17;;;;;;;8.02;4.75;;;14.20;1.00;;;;;;7391198;19;20021;-61
2022/07/09 02:52:49;;;;;;;8.38;5.30;;;14.20;1.00;;;;;;7368237;19;20006;-61
2022/07/09 02:55:19;;;;;;;8.50;4.50;;;14.30;1.00;;;;;;7368176;19;20370;-61
2022/07/09 02:57:49;;;;;;;9.63;4.85;;;14.30;1.00;;;;;;7367846;19;20481;-61
2022/07/09 03:00:19;;;;;;;7.82;4.40;;;14.20;1.00;;;;;;7371683;19;20007;-61
2022/07/09 03:02:49;;;;;;;6.93;4.63;;;14.10;1.00;;;;;;7376334;19;20040;-61
2022/07/09 03:05:19;;;;;;;14.73;4.78;;;14.10;1.00;;;;;;7397451;19;20021;-60
2022/07/09 03:07:52;;;;;;;8.02;5.15;;;14.10;1.00;;;;;;7374501;19;20010;-59
2022/07/09 03:10:22;;;;;;;9.20;4.90;;;14.20;1.00;;;;;;7375874;19;20016;-61
2022/07/09 03:12:52;;;;;;;11.55;5.07;;;14.10;1.00;;;;;;7375024;19;20094;-62
2022/07/09 03:15:22;;;;;;;8.10;5.30;;;14.20;1.00;;;;;;7375591;19;20017;-62
2022/07/09 03:17:52;;;;;;;7.45;4.82;;;14.20;1.00;;;;;;7374065;19;20180;-60
2022/07/09 03:20:22;;;;;;;9.13;5.22;;;14.20;1.00;;;;;;7394791;19;20007;-61
2022/07/09 03:22:54;;;;;;;7.00;4.95;;;14.20;1.00;;;;;;7374670;19;20017;-61
2022/07/09 03:25:24;;;;;;;8.80;5.25;;;14.10;1.00;;;;;;7373881;19;20006;-61
2022/07/09 03:27:54;;;;;;;7.10;4.18;;;14.10;1.00;;;;;;7374441;19;20014;-60
2022/07/09 03:30:24;;;;;;;11.35;4.65;;;13.70;1.70;;;;;;7374621;19;20027;-60
2022/07/09 03:32:54;;;;;;;6.72;4.70;;;13.60;2.80;;;;;;7375359;19;20027;-61
2022/07/09 03:35:24;;;;;;;7.78;4.97;;;13.60;4.10;;;;;;7397242;19;20081;-61
2022/07/09 03:37:57;;;;;;;8.40;5.20;;;13.60;4.60;;;;;;7373666;19;20071;-61
2022/07/09 03:40:27;;;;;;;8.13;4.40;;;13.50;5.30;;;;;;7372498;19;20024;-61
2022/07/09 03:42:57;;;;;;;6.53;4.47;;;13.50;6.00;;;;;;7373790;19;20775;-61
2022/07/09 03:45:26;;;;;;;8.60;5.30;;;13.40;6.40;;;;;;7373935;19;20109;-61
2022/07/09 03:47:56;;;;;;;7.30;5.05;;;13.40;6.80;;;;;;7373853;19;20021;-61
2022/07/09 03:50:26;;;;;;;7.07;4.68;;;13.40;7.20;;;;;;7395883;19;20035;-61
2022/07/09 03:52:59;;;;;;;6.70;4.47;;;13.90;5.30;;;;;;7374283;19;20081;-61
2022/07/09 03:55:29;;;;;;;5.55;4.43;;;14.00;3.10;;;;;;7372889;19;20011;-61
2022/07/09 03:57:59;;;;;;;6.78;4.20;;;14.20;3.10;;;;;;7372295;19;20051;-62
2022/07/09 04:00:29;;;;;;;8.00;4.32;;;14.50;1.00;;;;;;7372756;19;20021;-61
2022/07/09 04:02:59;;;;;;;10.88;4.85;;;14.30;1.00;;;;;;7373891;19;20011;-60
2022/07/09 04:05:28;;;;;;;6.78;4.63;;;14.70;1.00;;;;;;7395806;19;20010;-60
2022/07/09 04:08:01;;;;;;;8.38;5.38;;;14.40;1.00;;;;;;7372683;19;20458;-61
2022/07/09 04:10:31;;;;;;;5.43;4.10;;;14.10;1.50;;;;;;7370754;19;20466;-61
2022/07/09 04:13:01;;;;;;;6.53;4.50;;;14.30;1.90;;;;;;7373871;19;20083;-60
2022/07/09 04:15:32;;;;;;;6.75;4.65;;;14.40;1.00;;;;;;7373199;19;20086;-60
2022/07/09 04:18:02;;;;;;;7.20;4.45;;;14.50;1.00;;;;;;7372505;19;20014;-60
2022/07/09 04:20:32;;;;;;;9.63;4.72;;;14.60;1.00;;;;;;7393775;19;20034;-61
2022/07/09 04:23:04;;;;;;;8.30;5.25;;;15.10;1.00;;;;;;7373359;19;20010;-60
2022/07/09 04:25:34;;;;;;;8.52;5.20;;;15.60;1.00;;;;;;7372341;19;20143;-60
2022/07/09 04:28:05;;;;;;;12.57;5.45;;;16.40;1.00;;;;;;7372845;19;20186;-60
2022/07/09 04:30:35;;;;;;;6.15;4.32;;;16.90;1.00;;;;;;7373229;19;20034;-60
2022/07/09 04:33:05;;;;;;;9.15;5.10;;;16.70;1.00;;;;;;7371779;19;20086;-61
2022/07/09 04:35:35;;;;;;;6.55;4.43;;;16.30;1.00;;;;;;7374976;19;20546;-61
2022/07/09 04:38:08;;;;;;;11.63;5.50;;;16.30;1.00;;;;;;7391055;19;20099;-60
2022/07/09 04:40:38;;;;;;;9.75;4.40;;;15.90;1.00;;;;;;7370416;19;20011;-60
2022/07/09 04:43:08;;;;;;;9.38;5.10;;;16.00;1.00;;;;;;7372976;19;20392;-60
2022/07/09 04:45:38;;;;;;;9.23;5.22;;;16.60;1.00;;;;;;7371318;19;20102;-61
2022/07/09 04:48:08;;;;;;;7.65;4.32;;;17.40;1.00;;;;;;7372024;19;20499;-60
2022/07/09 04:50:38;;;;;;;8.00;4.55;;;17.50;1.00;;;;;;7371858;19;20470;-61
2022/07/09 04:53:10;;;;;;;8.88;5.18;;;17.00;1.00;;;;;;7394196;19;20029;-61
2022/07/09 04:55:40;;;;;;;8.90;4.65;;;17.20;1.00;;;;;;7370497;19;20476;-61
2022/07/09 04:58:10;;;;;;;7.50;4.97;;;17.90;1.00;;;;;;7371799;19;20010;-61
2022/07/09 05:00:40;;;;;;;10.57;4.60;;;17.70;1.00;;;;;;7370579;19;20394;-62
2022/07/09 05:03:11;;;;;;;8.18;4.85;;;18.00;1.00;;;;;;7371916;19;20092;-61
2022/07/09 05:05:41;;;;;;;8.88;4.65;;;19.10;1.00;;;;;;7371271;19;20082;-61
2022/07/09 05:08:21;;;;;;;8.02;4.82;;;19.00;1.00;;;;;;7393100;19;20011;-62
2022/07/09 05:10:51;;;;;;;8.60;4.65;;;19.30;1.00;;;;;;7371148;19;20019;-61
2022/07/09 05:13:21;;;;;;;7.25;4.57;;;19.20;1.00;;;;;;7371761;19;20052;-61
2022/07/09 05:15:51;;;;;;;7.35;4.82;;;19.90;1.00;;;;;;7370579;19;20018;-61
2022/07/09 05:18:21;;;;;;;8.07;4.65;;;21.00;1.00;;;;;;7370739;19;20082;-62
2022/07/09 05:20:51;;;;;;;8.00;5.47;;;20.80;1.00;;;;;;7369618;19;20039;-61
2022/07/09 05:23:23;;;;;;;7.03;3.92;;;20.90;1.00;;;;;;7392261;19;20018;-61
2022/07/09 05:25:53;;;;;;;9.27;4.13;;;20.30;1.00;;;;;;7369661;19;20014;-62
2022/07/09 05:28:23;;;;;;;7.63;4.50;;;20.40;1.00;;;;;;7370409;19;20010;-60
2022/07/09 05:30:52;;;;;;;9.02;4.25;;;21.10;1.00;;;;;;7369642;19;20105;-60
2022/07/09 05:33:42;;;;;;;8.73;4.38;;;21.80;1.00;;;;;;7370220;19;20014;-60
2022/07/09 05:36:19;;;;;;;8.40;4.28;;;21.90;1.00;;;;;;7369157;19;20011;-61
2022/07/09 05:38:51;;;;;;;6.38;4.10;;;21.40;1.00;;;;;;7370815;19;20096;-61
2022/07/09 05:41:22;;;;;;;6.75;4.10;;;21.40;1.00;;;;;;7391426;19;20021;-61
2022/07/09 05:43:52;;;;;;;5.75;4.13;;;21.90;1.00;;;;;;7370545;19;20014;-61
2022/07/09 05:46:22;;;;;;;8.73;4.03;;;21.20;1.00;;;;;;7368274;19;20027;-61
2022/07/09 05:48:52;;;;;;;7.75;3.50;;;21.70;1.00;;;;;;7370761;19;20022;-61
2022/07/09 05:51:22;;;;;;;7.38;4.50;;;22.10;1.00;;;;;;7370085;19;20537;-61
2022/07/09 05:53:54;;;;;;;5.65;4.30;;;21.40;1.00;;;;;;7370459;19;20034;-61
2022/07/09 05:56:24;;;;;;;7.40;4.50;;;21.30;1.00;;;;;;7389456;19;20014;-61
2022/07/09 05:58:54;;;;;;;8.32;5.45;;;20.30;1.00;;;;;;7369540;19;20014;-60
2022/07/09 06:01:24;;;;;;;8.95;5.53;;;21.40;1.00;;;;;;7367782;19;19999;-60
2022/07/09 06:03:56;;;;;;;9.82;4.70;;;21.50;1.00;;;;;;7369828;19;20373;-60
2022/07/09 06:06:26;;;;;;;8.07;4.82;;;21.20;1.00;;;;;;7368011;19;20478;-61
2022/07/09 06:08:59;;;;;;;7.50;4.13;;;20.80;1.00;;;;;;7370181;19;20033;-62
2022/07/09 06:11:29;;;;;;;6.35;4.30;;;21.60;1.00;;;;;;7390701;19;20077;-61
2022/07/09 06:13:59;;;;;;;9.13;3.90;;;20.60;1.00;;;;;;7369738;19;20029;-62
2022/07/09 06:16:29;;;;;;;7.13;4.05;;;19.60;1.00;;;;;;7367026;19;20017;-62
2022/07/09 06:18:59;;;;;;;5.43;4.05;;;19.30;1.00;;;;;;7368534;19;20010;-61
2022/07/09 06:21:29;;;;;;;7.63;3.97;;;19.10;1.00;;;;;;7368881;19;20071;-60
2022/07/09 06:24:02;;;;;;;9.48;4.18;;;19.30;1.00;;;;;;7369642;19;20074;-61
2022/07/09 06:26:33;;;;;;;4.15;3.75;;;19.20;1.00;;;;;;7389231;19;20474;-60
2022/07/09 06:29:03;;;;;;;11.65;5.90;;;19.20;1.00;;;;;;7368443;19;20021;-60
2022/07/09 06:31:34;;;;;;;8.15;3.72;;;19.70;1.00;;;;;;7368124;19;20479;-61
2022/07/09 06:34:04;;;;;;;9.02;4.07;;;20.30;1.00;;;;;;7366862;19;20430;-61
2022/07/09 06:36:35;;;;;;;5.85;3.63;;;20.40;1.00;;;;;;7367789;19;20077;-61
2022/07/09 06:41:50;;;;;;;5.32;3.40;;;20.80;1.00;;;;;;7367397;19;20025;-60
2022/07/09 06:44:19;;;;;;;6.18;3.70;;;20.40;1.00;;;;;;7390448;19;20487;-59
2022/07/09 06:46:49;;;;;;;6.97;3.60;;;20.00;1.00;;;;;;7365351;19;20025;-61
2022/07/09 06:49:19;;;;;;;6.88;3.97;;;21.10;1.00;;;;;;7369218;19;20074;-61
2022/07/09 06:51:49;;;;;;;6.70;4.00;;;20.30;1.00;;;;;;7367724;19;20486;-61
2022/07/09 06:54:21;;;;;;;8.88;3.63;;;20.50;1.00;;;;;;7368446;19;20014;-61
2022/07/09 06:56:51;;;;;;;5.80;3.75;;;20.50;1.00;;;;;;7366508;19;20094;-61
2022/07/09 06:59:22;;;;;;;6.15;3.90;;;20.40;1.00;;;;;;7391011;19;20346;-61
2022/07/09 07:01:52;;;;;;;8.52;3.80;;;20.90;1.00;;;;;;7366957;19;20085;-61
2022/07/09 07:04:22;;;;;;;5.32;3.28;;;20.70;1.00;;;;;;7367996;19;20073;-61
2022/07/09 07:06:52;;;;;;;7.88;3.70;;;21.00;1.00;;;;;;7366063;19;20018;-61
2022/07/09 07:09:25;;;;;;;8.07;3.50;;;20.80;1.00;;;;;;7367296;19;20017;-61
2022/07/09 07:11:55;;;;;;;4.38;2.85;;;20.90;1.00;;;;;;7368189;19;20004;-61
2022/07/09 07:14:24;;;;;;;7.72;3.50;;;21.30;1.00;;;;;;7388586;19;20724;-61
2022/07/09 07:16:55;;;;;;;6.13;3.38;;;21.10;1.00;;;;;;7364780;19;20023;-61
2022/07/09 07:19:25;;;;;;;7.60;3.17;;;20.40;1.00;;;;;;7366331;19;20006;-61
2022/07/09 07:21:55;;;;;;;5.93;3.10;;;20.50;1.00;;;;;;7368051;19;20006;-60
2022/07/09 07:24:27;;;;;;;8.80;3.33;;;20.60;1.00;;;;;;7366309;19;20007;-61
2022/07/09 07:26:57;;;;;;;7.07;3.42;;;20.80;1.00;;;;;;7363743;19;20015;-61
2022/07/09 07:29:27;;;;;;;9.25;3.28;;;20.50;1.00;;;;;;7389286;19;20078;-61
2022/07/09 07:31:58;;;;;;;5.13;3.05;;;20.40;1.00;;;;;;7367003;19;20011;-61
2022/07/09 07:34:31;;;;;;;5.30;3.30;;;20.50;1.00;;;;;;7366611;19;20089;-61
2022/07/09 07:37:01;;;;;;;5.65;3.17;;;21.10;1.00;;;;;;7365430;19;20019;-61
2022/07/09 07:39:33;;;;;;;4.45;3.05;;;21.40;1.00;;;;;;7366864;19;20010;-61
2022/07/09 07:42:03;;;;;;;6.00;3.22;;;20.70;1.00;;;;;;7366655;19;20484;-61
2022/07/09 07:44:33;;;;;;;7.10;3.28;;;20.80;1.00;;;;;;7388267;19;20007;-61
2022/07/09 07:47:03;;;;;;;6.10;3.55;;;20.50;1.00;;;;;;7370170;19;20518;-61
2022/07/09 07:49:33;;;;;;;7.18;3.30;;;21.30;1.00;;;;;;7374169;19;20027;-60
2022/07/09 07:52:03;;;;;;;6.43;3.42;;;21.00;1.00;;;;;;7373218;19;20106;-61
2022/07/09 07:54:36;;;;;;;6.03;3.17;;;21.30;1.00;;;;;;7372576;19;20392;-61
2022/07/09 07:57:06;;;;;;;5.32;3.00;;;21.60;1.00;;;;;;7372170;19;20090;-61
2022/07/09 07:59:36;;;;;;;7.45;3.10;;;22.00;1.00;;;;;;7373373;19;20033;-62
2022/07/09 08:02:07;;;;;;;5.95;2.88;;;21.10;1.00;;;;;;7393636;19;20474;-61
2022/07/09 08:04:37;;;;;;;5.32;2.97;;;21.90;1.00;;;;;;7373098;19;20018;-61
2022/07/09 08:07:07;;;;;;;3.90;2.63;;;22.20;1.00;;;;;;7372567;19;20014;-61
2022/07/09 08:09:39;;;;;;;7.55;2.67;;;22.50;1.00;;;;;;7373764;19;20702;-60
2022/07/09 08:12:11;;;;;;;5.97;2.90;;;22.40;1.00;;;;;;7373076;19;20478;-61
2022/07/09 08:14:41;;;;;;;5.05;2.80;;;22.70;1.00;;;;;;7372471;19;20014;-61
2022/07/09 08:17:11;;;;;;;5.00;3.00;;;22.40;1.00;;;;;;7391722;19;20014;-61
2022/07/09 08:19:41;;;;;;;6.00;3.00;;;22.40;1.00;;;;;;7372412;19;20466;-61
2022/07/09 08:22:11;;;;;;;7.35;2.70;;;22.80;1.00;;;;;;7371014;19;20471;-61
2022/07/09 08:24:43;;;;;;;6.60;2.70;;;22.90;1.00;;;;;;7371934;19;20486;-61
2022/07/09 08:27:13;;;;;;;6.30;2.20;;;22.60;1.00;;;;;;7371022;19;20459;-61
2022/07/09 08:29:43;;;;;;;4.05;2.00;;;22.60;1.00;;;;;;7372982;19;20015;-61
2022/07/09 08:32:13;;;;;;;8.30;2.10;;;22.90;1.00;;;;;;7395073;19;20081;-61
2022/07/09 08:34:42;;;;;;;4.15;1.70;;;23.10;1.00;;;;;;7372234;19;20081;-62
2022/07/09 08:37:12;;;;;;;3.78;1.85;;;23.10;1.00;;;;;;7371660;19;20089;-61
2022/07/09 08:39:45;;;;;;;11.90;2.45;;;22.70;1.00;;;;;;7372761;19;20011;-61
2022/07/09 08:42:18;;;;;;;5.38;2.40;;;22.90;1.00;;;;;;7371815;19;20565;-60
2022/07/09 08:44:50;;;;;;;5.55;1.50;;;23.10;1.00;;;;;;7371754;19;20441;-61
2022/07/09 08:47:20;;;;;;;4.25;1.90;;;23.20;1.00;;;;;;7390887;19;20021;-63
2022/07/09 08:49:50;;;;;;;2.75;1.60;;;23.70;1.00;;;;;;7371499;19;20007;-60
2022/07/09 08:52:22;;;;;;;3.58;1.70;;;23.90;1.00;;;;;;7371580;19;20016;-62
2022/07/09 08:54:55;;;;;;;4.32;1.80;;;24.00;1.00;;;;;;7371686;19;20014;-61
2022/07/09 08:57:28;;;;;;;2.75;1.60;;;23.80;1.00;;;;;;7367784;19;20015;-61
2022/07/09 08:59:57;;;;;;;5.00;1.95;;;23.00;1.00;;;;;;7371157;19;20564;-61
2022/07/09 09:02:27;;;;;;;8.43;1.85;;;23.60;1.00;;;;;;7392009;19;20020;-62
2022/07/09 09:04:57;;;;;;;5.90;2.13;;;24.00;1.00;;;;;;7370787;19;21082;-61
2022/07/09 09:07:27;;;;;;;3.03;1.83;;;23.90;1.00;;;;;;7369410;19;20024;-61
2022/07/09 09:09:59;;;;;;;3.25;1.60;;;23.50;1.00;;;;;;7371343;19;20014;-62
2022/07/09 09:12:31;;;;;;;5.28;2.20;;;23.40;1.00;;;;;;7371136;19;20016;-61
2022/07/09 09:15:01;;;;;;;7.18;2.22;;;24.00;1.00;;;;;;7369996;19;20014;-62
2022/07/09 09:17:30;;;;;;;6.57;2.00;;;23.90;1.00;;;;;;7389105;19;20018;-60
2022/07/09 09:20:00;;;;;;;6.90;2.00;;;24.30;1.00;;;;;;7369470;19;20011;-61
2022/07/09 09:22:30;;;;;;;3.45;1.80;;;23.90;1.00;;;;;;7369700;19;20020;-61
2022/07/09 09:25:04;;;;;;;2.53;1.58;;;23.50;1.00;;;;;;7370557;19;20014;-62
2022/07/09 09:27:34;;;;;;;6.68;2.45;;;23.20;1.00;;;;;;7367650;19;20105;-61
2022/07/09 09:30:05;;;;;;;3.58;2.10;;;23.60;1.00;;;;;;7369809;19;20020;-61
2022/07/09 09:32:34;;;;;;;2.75;1.95;;;23.70;1.00;;;;;;7380184;19;20086;-61
2022/07/09 09:35:05;;;;;;;6.97;2.00;;;23.30;1.00;;;;;;7388787;19;20093;-62
2022/07/09 09:37:35;;;;;;;3.25;1.80;;;23.00;1.00;;;;;;7365480;19;20006;-61
2022/07/09 09:40:14;;;;;;;4.03;1.55;;;22.90;1.00;;;;;;7367853;19;20010;-61
2022/07/09 09:42:44;;;;;;;4.15;1.35;;;23.40;1.00;;;;;;7368959;19;20089;-61
2022/07/09 09:45:17;;;;;;;5.50;1.73;;;24.00;1.00;;;;;;7370613;19;20074;-61
2022/07/09 09:47:51;;;;;;;3.10;1.50;;;23.90;1.00;;;;;;7370236;19;20586;-61
2022/07/09 09:50:22;;;;;;;1.80;1.30;;;23.70;1.00;;;;;;7392231;19;20014;-61
2022/07/09 09:52:54;;;;;;;3.33;1.40;;;23.50;1.00;;;;;;7369891;19;20474;-61
2022/07/09 09:55:27;;;;;;;3.13;1.30;;;23.60;1.00;;;;;;7368739;19;20125;-61
2022/07/09 09:57:57;;;;;;;5.45;1.50;;;23.20;1.00;;;;;;7369914;19;20050;-60
2022/07/09 10:00:27;;;;;;;1.67;1.17;;;24.10;1.00;;;;;;7368720;19;20006;-62
2022/07/09 10:02:58;;;;;;;5.05;1.52;;;24.40;1.00;;;;;;7368612;19;20014;-61
2022/07/09 10:05:28;;;;;;;2.00;1.17;;;23.80;1.00;;;;;;7390466;19;20078;-62
2022/07/09 10:07:57;;;;;;;2.47;1.52;;;24.50;1.00;;;;;;7368700;19;20471;-62
2022/07/09 10:10:30;;;;;;;5.20;1.35;;;24.40;1.00;;;;;;7367886;19;20011;-60
2022/07/09 10:13:00;;;;;;;2.22;1.23;;;24.70;1.00;;;;;;7369697;19;20123;-61
2022/07/09 10:15:30;;;;;;;2.70;1.30;;;24.40;1.00;;;;;;7367968;19;20494;-61
2022/07/09 10:17:59;;;;;;;2.85;1.38;;;24.10;1.00;;;;;;7368952;19;20007;-62
2022/07/09 10:20:34;;;;;;;2.78;1.25;;;24.20;1.00;;;;;;7390621;19;20014;-62
2022/07/09 10:23:06;;;;;;;5.70;1.45;;;24.30;1.00;;;;;;7368200;19;20023;-62
2022/07/09 10:25:50;;;;;;;3.40;1.50;;;24.20;1.00;;;;;;7367903;19;20021;-62
2022/07/09 10:28:22;;;;;;;3.00;1.45;;;23.70;1.00;;;;;;7368733;19;20205;-61
2022/07/09 10:30:53;;;;;;;4.25;1.77;;;23.80;1.00;;;;;;7363523;19;20471;-61
2022/07/09 10:33:25;;;;;;;2.70;1.40;;;24.40;1.00;;;;;;7366234;19;20078;-61
2022/07/09 10:35:57;;;;;;;1.30;1.10;;;23.90;1.00;;;;;;7365316;19;20079;-62
2022/07/09 10:38:38;;;;;;;2.03;1.20;;;24.00;1.00;;;;;;7385519;19;20048;-63
2022/07/09 10:41:11;;;;;;;1.70;0.93;;;24.70;1.00;;;;;;7364423;19;20031;-62
2022/07/09 10:43:45;;;;;;;2.60;1.10;;;24.90;1.00;;;;;;7364056;19;20126;-61
2022/07/09 10:46:16;;;;;;;3.33;1.13;;;24.50;1.00;;;;;;7360949;19;20038;-61
2022/07/09 10:48:48;;;;;;;1.40;1.00;;;24.60;1.00;;;;;;7365518;19;20022;-62
2022/07/09 10:51:20;;;;;;;2.22;0.90;;;24.70;1.00;;;;;;7363605;19;20023;-62
2022/07/09 10:53:50;;;;;;;3.65;1.00;;;25.40;1.00;;;;;;7365727;19;20082;-62
2022/07/09 10:56:24;;;;;;;1.25;1.13;;;24.90;1.00;;;;;;7385689;19;20804;-60
2022/07/09 10:58:54;;;;;;;2.85;1.15;;;25.50;1.00;;;;;;7365381;19;20083;-62
2022/07/09 11:01:26;;;;;;;2.85;1.13;;;25.70;1.00;;;;;;7365898;19;20017;-61
2022/07/09 11:03:58;;;;;;;5.05;1.67;;;25.50;1.00;;;;;;7363864;19;20079;-62
2022/07/09 11:06:29;;;;;;;2.17;1.10;;;25.00;1.00;;;;;;7365372;19;20015;-62
2022/07/09 11:08:58;;;;;;;3.80;1.27;;;24.00;1.00;;;;;;7363222;19;20035;-62
2022/07/09 11:11:31;;;;;;;1.55;1.20;;;24.30;1.00;;;;;;7384685;19;20422;-63
2022/07/09 11:14:01;;;;;;;1.65;1.27;;;24.50;1.00;;;;;;7365327;19;20209;-62
2022/07/09 11:16:31;;;;;;;2.97;1.42;;;24.10;1.00;;;;;;7364197;19;20021;-62
2022/07/09 11:19:01;;;;;;;4.47;1.38;;;24.10;1.00;;;;;;7365400;19;20036;-61
2022/07/09 11:21:31;;;;;;;2.65;1.30;;;24.10;1.00;;;;;;7371569;19;20010;-62
2022/07/09 11:24:00;;;;;;;3.67;1.20;;;23.80;1.00;;;;;;7370769;19;20010;-62
2022/07/09 11:26:33;;;;;;;3.67;1.25;;;23.90;1.00;;;;;;7390735;19;20014;-60
2022/07/09 11:29:03;;;;;;;1.95;1.30;;;24.00;1.00;;;;;;7369440;19;20069;-62
2022/07/09 11:31:33;;;;;;;1.77;1.40;;;23.70;1.00;;;;;;7372783;19;20346;-62
2022/07/09 11:34:15;;;;;;;3.13;1.38;;;24.30;1.00;;;;;;7369540;19;20015;-62
2022/07/09 11:36:48;;;;;;;2.30;0.90;;;24.20;1.00;;;;;;7370739;19;20025;-62
2022/07/09 11:39:26;;;;;;;2.78;1.10;;;24.30;1.00;;;;;;7372242;19;20082;-62
2022/07/09 11:41:59;;;;;;;2.53;1.00;;;24.70;1.00;;;;;;7371514;19;20358;-62
2022/07/09 11:44:33;;;;;;;2.88;1.27;;;24.70;1.00;;;;;;7392775;19;20054;-62
2022/07/09 11:47:07;;;;;;;2.63;1.03;;;24.60;1.00;;;;;;7341129;19;20731;-61
2022/07/09 11:49:40;;;;;;;3.45;1.25;;;25.20;1.00;;;;;;7364542;19;20018;-63
2022/07/09 11:52:21;;;;;;;2.78;1.00;;;25.80;1.00;;;;;;7363335;19;20102;-62
2022/07/09 11:55:00;;;;;;;1.15;1.05;;;25.50;1.00;;;;;;7364162;19;20010;-62
2022/07/09 11:57:34;;;;;;;2.10;0.90;;;25.90;1.00;;;;;;7353068;19;20044;-62
2022/07/09 12:00:06;;;;;;;1.67;0.90;;;25.40;1.00;;;;;;7366035;19;20022;-62
2022/07/09 12:02:37;;;;;;;0.88;0.80;;;25.60;1.00;;;;;;7363669;19;20018;-62
2022/07/09 12:05:09;;;;;;;2.25;0.90;;;25.30;1.00;;;;;;7384380;19;20030;-62
2022/07/09 12:07:39;;;;;;;3.00;0.95;;;25.70;1.00;;;;;;7345218;19;20025;-62
2022/07/09 12:10:11;;;;;;;1.67;1.10;;;25.90;1.00;;;;;;7364622;19;20011;-63
2022/07/09 12:12:44;;;;;;;1.58;1.27;;;25.80;1.00;;;;;;7365702;19;20405;-62
2022/07/09 12:15:14;;;;;;;1.27;0.90;;;25.80;1.00;;;;;;7363006;19;20077;-63
2022/07/09 12:17:44;;;;;;;1.55;1.00;;;25.90;1.00;;;;;;7345094;19;20019;-61
2022/07/09 12:20:14;;;;;;;2.95;1.00;;;25.90;1.00;;;;;;7385489;19;20014;-62
2022/07/09 12:22:44;;;;;;;1.30;0.90;;;26.10;1.00;;;;;;7361891;19;20478;-62
2022/07/09 12:25:14;;;;;;;1.55;0.93;;;26.00;1.00;;;;;;7364083;19;20521;-62
2022/07/09 12:27:46;;;;;;;2.42;1.08;;;26.00;1.00;;;;;;7347201;19;20082;-62
2022/07/09 12:30:16;;;;;;;1.58;0.80;;;25.70;1.00;;;;;;7360764;19;20011;-62
2022/07/09 12:32:47;;;;;;;0.95;0.80;;;25.60;1.00;;;;;;7361411;19;20019;-63
2022/07/09 12:35:17;;;;;;;2.80;0.70;;;25.90;1.00;;;;;;7386076;19;20540;-63
2022/07/09 12:37:47;;;;;;;2.38;1.00;;;26.30;1.00;;;;;;7344800;19;20006;-62
2022/07/09 12:40:17;;;;;;;1.52;0.80;;;26.10;1.00;;;;;;7365164;19;20866;-62
2022/07/09 12:42:49;;;;;;;2.08;0.80;;;26.10;1.00;;;;;;7364224;19;20017;-62
2022/07/09 12:45:19;;;;;;;2.47;0.90;;;26.60;1.00;;;;;;7361791;19;20010;-64
2022/07/09 12:47:55;;;;;;;2.10;0.60;;;26.50;1.00;;;;;;7347597;19;20827;-61
2022/07/09 12:50:40;;;;;;;0.88;0.77;;;26.20;1.00;;;;;;7377839;19;20021;-64
2022/07/09 12:53:19;;;;;;;1.73;0.95;;;26.80;1.00;;;;;;7381352;19;20467;-62
2022/07/09 12:55:55;;;;;;;1.02;0.93;;;26.10;1.00;;;;;;7345273;19;20648;-63
2022/07/09 12:58:35;;;;;;;2.63;1.10;;;26.70;1.00;;;;;;7361994;19;20035;-62
2022/07/09 13:01:08;;;;;;;3.25;0.73;;;26.60;1.00;;;;;;7364330;19;20018;-63
2022/07/09 13:03:38;;;;;;;3.90;1.05;;;25.90;1.00;;;;;;7363083;19;20011;-63
2022/07/09 13:06:34;;;;;;;1.55;0.70;;;26.00;1.00;;;;;;7347313;19;20017;-62
2022/07/09 13:09:06;;;;;;;2.33;0.85;;;26.30;1.00;;;;;;7360252;19;20082;-63
2022/07/09 13:11:36;;;;;;;1.33;0.98;;;26.50;1.00;;;;;;7364567;19;20092;-63
2022/07/09 13:14:09;;;;;;;2.03;0.98;;;26.40;1.00;;;;;;7383996;19;20104;-62
2022/07/09 13:16:40;;;;;;;2.85;0.98;;;26.30;1.00;;;;;;7340408;19;20110;-63
2022/07/09 13:19:10;;;;;;;3.47;1.35;;;26.10;1.00;;;;;;7362065;19;20117;-61